createdAt,value
2022-10-05T00:00:59.796Z,8.63
2022-10-05T00:03:37.288Z,8.80
2022-10-05T00:06:05.198Z,9.18
2022-10-05T00:08:34.751Z,8.75
2022-10-05T00:11:02.185Z,8.27
2022-10-05T00:13:31.001Z,9.15
2022-10-05T00:16:21.535Z,8.98
2022-10-05T00:18:53.798Z,8.80
2022-10-05T00:21:26.985Z,8.23
2022-10-05T00:23:57.648Z,8.15
2022-10-05T00:26:27.035Z,8.35
2022-10-05T00:28:54.844Z,7.88
2022-10-05T00:31:31.028Z,8.00
2022-10-05T00:33:58.288Z,8.25
2022-10-05T00:36:26.440Z,7.15
2022-10-05T00:38:54.637Z,8.63
2022-10-05T00:41:32.527Z,7.93
2022-10-05T00:44:28.695Z,7.53
2022-10-05T00:46:58.504Z,7.38
2022-10-05T00:49:25.492Z,7.70
2022-10-05T00:52:20.590Z,7.32
2022-10-05T00:54:59.969Z,7.32
2022-10-05T00:57:27.027Z,7.28
2022-10-05T01:00:12.580Z,8.20
2022-10-05T01:03:01.818Z,7.47
2022-10-05T01:05:44.431Z,6.28
2022-10-05T01:08:40.681Z,6.55
2022-10-05T01:11:23.516Z,7.55
2022-10-05T01:14:14.920Z,7.95
2022-10-05T01:16:59.555Z,6.45
2022-10-05T01:19:29.566Z,6.90
2022-10-05T01:22:22.653Z,6.55
2022-10-05T01:25:03.840Z,6.72
2022-10-05T01:28:07.885Z,6.72
2022-10-05T01:30:50.462Z,6.88
2022-10-05T01:33:29.398Z,7.15
2022-10-05T01:36:25.596Z,7.18
2022-10-05T01:39:03.831Z,6.20
2022-10-05T01:42:05.320Z,7.47
2022-10-05T01:44:44.185Z,6.82
2022-10-05T01:47:38.536Z,6.85
2022-10-05T01:50:12.904Z,7.43
2022-10-05T01:52:56.536Z,6.57
2022-10-05T01:55:52.617Z,6.07
2022-10-05T01:58:39.082Z,6.75
2022-10-05T02:01:30.381Z,6.63
2022-10-05T02:04:02.865Z,7.00
2022-10-05T02:06:39.330Z,6.43
2022-10-05T02:09:18.805Z,6.35
2022-10-05T02:11:51.649Z,6.53
2022-10-05T02:14:27.217Z,6.32
2022-10-05T02:16:58.035Z,6.13
2022-10-05T02:19:41.136Z,6.65
2022-10-05T02:22:15.075Z,6.18
2022-10-05T02:24:48.300Z,5.93
2022-10-05T02:27:21.706Z,5.85
2022-10-05T02:29:51.236Z,6.05
2022-10-05T02:32:25.671Z,6.18
2022-10-05T02:34:52.938Z,5.82
2022-10-05T02:37:23.014Z,5.80
2022-10-05T02:39:59.368Z,5.18
2022-10-05T02:42:49.641Z,5.25
2022-10-05T02:45:43.452Z,4.85
2022-10-05T02:48:10.482Z,5.97
2022-10-05T02:50:52.970Z,4.90
2022-10-05T02:53:31.631Z,6.00
2022-10-05T02:56:05.724Z,5.05
2022-10-05T02:58:53.253Z,4.80
2022-10-05T03:01:30.970Z,5.63
2022-10-05T03:04:16.594Z,5.47
2022-10-05T03:07:33.257Z,5.32
2022-10-05T03:10:21.365Z,4.93
2022-10-05T03:13:11.834Z,4.28
2022-10-05T03:15:53.797Z,4.50
2022-10-05T03:18:41.892Z,4.38
2022-10-05T03:21:26.752Z,4.68
2022-10-05T03:24:22.238Z,4.88
2022-10-05T03:26:56.670Z,5.07
2022-10-05T03:29:36.108Z,4.65
2022-10-05T03:32:15.150Z,4.85
2022-10-05T03:34:55.920Z,4.78
2022-10-05T03:37:53.643Z,4.53
2022-10-05T03:40:31.242Z,4.28
2022-10-05T03:43:22.298Z,4.45
2022-10-05T03:45:56.546Z,4.60
2022-10-05T03:48:40.305Z,5.10
2022-10-05T03:51:25.155Z,5.15
2022-10-05T03:54:01.574Z,5.18
2022-10-05T03:56:54.971Z,5.40
2022-10-05T03:59:31.517Z,4.65
2022-10-05T04:02:03.025Z,5.15
2022-10-05T04:04:45.354Z,4.82
2022-10-05T04:07:23.045Z,5.32
2022-10-05T04:09:51.318Z,5.57
2022-10-05T04:12:33.635Z,5.10
2022-10-05T04:15:18.747Z,5.47
2022-10-05T04:17:54.549Z,5.55
2022-10-05T04:20:45.243Z,4.65
2022-10-05T04:23:51.525Z,4.95
2022-10-05T04:26:26.275Z,5.65
2022-10-05T04:29:00.160Z,6.00
2022-10-05T04:31:50.024Z,4.95
2022-10-05T04:34:46.275Z,6.53
2022-10-05T04:37:51.509Z,5.57
2022-10-05T04:40:39.418Z,6.40
2022-10-05T04:43:31.698Z,5.53
2022-10-05T04:46:16.959Z,6.40
2022-10-05T04:49:29.731Z,5.78
2022-10-05T04:52:13.683Z,6.03
2022-10-05T04:55:29.113Z,5.85
2022-10-05T04:58:11.314Z,5.57
2022-10-05T05:01:18.784Z,5.43
2022-10-05T05:04:20.721Z,5.50
2022-10-05T05:07:28.182Z,5.78
2022-10-05T05:10:33.212Z,5.78
2022-10-05T05:13:27.256Z,5.68
2022-10-05T05:16:10.769Z,5.30
2022-10-05T05:19:28.456Z,4.90
2022-10-05T05:22:04.475Z,5.35
2022-10-05T05:24:46.565Z,4.90
2022-10-05T05:27:40.655Z,6.60
2022-10-05T05:30:39.166Z,5.88
2022-10-05T05:33:19.482Z,5.90
2022-10-05T05:36:11.059Z,5.63
2022-10-05T05:39:02.512Z,5.57
2022-10-05T05:41:37.657Z,5.85
2022-10-05T05:44:29.567Z,5.68
2022-10-05T05:47:04.515Z,5.90
2022-10-05T05:49:56.544Z,5.15
2022-10-05T05:52:32.129Z,5.75
2022-10-05T05:55:08.032Z,5.63
2022-10-05T05:57:50.950Z,5.50
2022-10-05T06:00:26.965Z,5.80
2022-10-05T06:03:24.870Z,6.22
2022-10-05T06:05:56.740Z,5.55
2022-10-05T06:08:45.334Z,5.38
2022-10-05T06:11:25.706Z,6.10
2022-10-05T06:13:55.003Z,5.85
2022-10-05T06:16:22.433Z,6.20
2022-10-05T06:19:12.093Z,5.57
2022-10-05T06:21:43.735Z,5.15
2022-10-05T06:24:30.971Z,6.22
2022-10-05T06:27:24.087Z,5.55
2022-10-05T06:29:59.494Z,5.38
2022-10-05T06:32:29.867Z,5.72
2022-10-05T06:35:01.879Z,5.93
2022-10-05T06:37:57.008Z,5.70
2022-10-05T06:40:58.330Z,5.25
2022-10-05T06:44:03.302Z,5.15
2022-10-05T06:46:48.141Z,5.03
2022-10-05T06:49:53.735Z,4.90
2022-10-05T06:52:45.824Z,4.60
2022-10-05T06:55:38.290Z,4.40
2022-10-05T06:58:28.010Z,3.97
2022-10-05T07:01:10.820Z,4.47
2022-10-05T07:04:03.060Z,3.97
2022-10-05T07:06:43.596Z,3.20
2022-10-05T07:09:22.686Z,3.63
2022-10-05T07:12:19.168Z,3.22
2022-10-05T07:15:07.839Z,3.22
2022-10-05T07:17:45.913Z,2.97
2022-10-05T07:20:21.844Z,3.50
2022-10-05T07:23:04.969Z,3.88
2022-10-05T07:25:50.867Z,4.15
2022-10-05T07:28:55.346Z,3.97
2022-10-05T07:31:37.420Z,4.53
2022-10-05T07:34:25.549Z,4.32
2022-10-05T07:37:39.422Z,4.85
2022-10-05T07:40:41.889Z,5.30
2022-10-05T07:43:17.589Z,5.22
2022-10-05T07:45:44.804Z,5.70
2022-10-05T07:48:21.614Z,5.18
2022-10-05T07:51:01.780Z,5.47
2022-10-05T07:53:33.030Z,4.70
2022-10-05T07:56:14.411Z,5.47
2022-10-05T07:58:46.893Z,5.95
2022-10-05T08:01:30.001Z,5.10
2022-10-05T08:04:12.086Z,4.80
2022-10-05T08:07:07.137Z,4.53
2022-10-05T08:09:38.015Z,5.35
2022-10-05T08:12:32.094Z,5.20
2022-10-05T08:15:11.024Z,4.45
2022-10-05T08:17:56.703Z,4.65
2022-10-05T08:20:50.593Z,4.85
2022-10-05T08:23:25.901Z,4.45
2022-10-05T08:25:57.164Z,4.68
2022-10-05T08:28:28.822Z,4.45
2022-10-05T08:31:13.304Z,4.35
2022-10-05T08:34:11.313Z,4.00
2022-10-05T08:36:54.881Z,4.40
2022-10-05T08:39:25.249Z,3.42
2022-10-05T08:42:04.250Z,4.28
2022-10-05T08:44:49.332Z,3.78
2022-10-05T08:47:28.154Z,3.67
2022-10-05T08:50:25.632Z,4.35
2022-10-05T08:53:01.978Z,3.70
2022-10-05T08:55:38.622Z,3.78
2022-10-05T08:58:27.748Z,5.43
2022-10-05T09:01:04.688Z,5.40
2022-10-05T09:03:54.931Z,4.82
2022-10-05T09:06:22.089Z,3.70
2022-10-05T09:08:55.684Z,3.53
2022-10-05T09:11:43.819Z,2.90
2022-10-05T09:14:39.102Z,2.70
2022-10-05T09:17:24.116Z,2.83
2022-10-05T09:19:53.897Z,2.40
2022-10-05T09:22:45.443Z,2.75
2022-10-05T09:25:22.698Z,2.40
2022-10-05T09:28:38.891Z,2.50
2022-10-05T09:31:26.944Z,2.83
2022-10-05T09:33:56.945Z,1.80
2022-10-05T09:36:35.983Z,2.33
2022-10-05T09:39:27.383Z,2.80
2022-10-05T09:42:24.992Z,2.00
2022-10-05T09:45:36.006Z,2.30
2022-10-05T09:48:27.811Z,2.33
2022-10-05T09:51:00.819Z,1.98
2022-10-05T09:54:04.411Z,1.63
2022-10-05T09:56:44.017Z,1.50
2022-10-05T09:59:23.432Z,1.20
2022-10-05T10:02:27.824Z,1.42
2022-10-05T10:05:01.859Z,1.35
2022-10-05T10:07:50.615Z,2.20
2022-10-05T10:10:41.936Z,1.80
2022-10-05T10:13:17.931Z,1.95
2022-10-05T10:16:32.395Z,1.73
2022-10-05T10:19:24.922Z,1.70
2022-10-05T10:22:00.830Z,2.40
2022-10-05T10:24:49.064Z,2.60
2022-10-05T10:27:32.264Z,2.53
2022-10-05T10:30:26.312Z,3.40
2022-10-05T10:33:15.653Z,3.67
2022-10-05T10:35:55.603Z,3.40
2022-10-05T10:38:47.549Z,3.60
2022-10-05T10:41:35.910Z,3.75
2022-10-05T10:44:32.440Z,3.33
2022-10-05T10:47:08.483Z,4.30
2022-10-05T10:49:57.498Z,3.72
2022-10-05T10:52:33.463Z,3.75
2022-10-05T10:55:35.533Z,3.15
2022-10-05T10:58:33.552Z,3.40
2022-10-05T11:01:28.651Z,3.20
2022-10-05T11:04:18.855Z,3.85
2022-10-05T11:07:04.392Z,4.07
2022-10-05T11:09:40.286Z,4.10
2022-10-05T11:12:26.088Z,4.10
2022-10-05T11:15:22.305Z,4.50
2022-10-05T11:17:58.192Z,3.95
2022-10-05T11:20:28.244Z,3.97
2022-10-05T11:22:58.039Z,4.35
2022-10-05T11:25:31.502Z,3.88
2022-10-05T11:28:28.248Z,3.92
2022-10-05T11:31:26.782Z,4.13
2022-10-05T11:34:26.155Z,4.00
2022-10-05T11:37:26.990Z,3.83
2022-10-05T11:40:12.202Z,3.85
2022-10-05T11:43:20.614Z,3.90
2022-10-05T11:46:08.431Z,4.10
2022-10-05T11:49:02.841Z,3.75
2022-10-05T11:51:35.994Z,4.15
2022-10-05T11:54:18.718Z,4.63
2022-10-05T11:56:56.256Z,4.50
2022-10-05T11:59:40.167Z,4.57
2022-10-05T12:02:31.423Z,4.20
2022-10-05T12:05:13.527Z,3.72
2022-10-05T12:07:56.625Z,3.90
2022-10-05T12:10:31.576Z,4.22
2022-10-05T12:13:10.677Z,4.53
2022-10-05T12:15:56.230Z,4.18
2022-10-05T12:18:39.348Z,4.35
2022-10-05T12:21:25.229Z,5.60
2022-10-05T12:24:27.293Z,3.75
2022-10-05T12:27:05.019Z,3.40
2022-10-05T12:29:44.219Z,3.78
2022-10-05T12:32:24.676Z,3.60
2022-10-05T12:35:13.315Z,3.30
2022-10-05T12:37:52.442Z,3.42
2022-10-05T12:40:30.345Z,4.00
2022-10-05T12:43:23.688Z,3.25
2022-10-05T12:45:56.461Z,3.75
2022-10-05T12:48:56.333Z,4.05
2022-10-05T12:51:42.964Z,3.08
2022-10-05T12:54:39.088Z,3.60
2022-10-05T12:57:06.219Z,4.10
2022-10-05T12:59:45.817Z,3.47
2022-10-05T13:02:44.613Z,3.25
2022-10-05T13:05:11.890Z,3.22
2022-10-05T13:07:47.452Z,3.30
2022-10-05T13:10:29.681Z,3.75
2022-10-05T13:13:23.974Z,3.08
2022-10-05T13:16:17.795Z,2.83
2022-10-05T13:19:03.640Z,3.08
2022-10-05T13:21:55.875Z,2.50
2022-10-05T13:24:31.247Z,3.03
2022-10-05T13:27:18.538Z,3.15
2022-10-05T13:29:54.313Z,2.75
2022-10-05T13:32:34.235Z,2.60
2022-10-05T13:35:11.251Z,2.88
2022-10-05T13:38:06.369Z,3.55
2022-10-05T13:40:36.090Z,3.03
2022-10-05T13:43:53.957Z,3.40
2022-10-05T13:46:29.483Z,3.05
2022-10-05T13:49:26.880Z,3.10
2022-10-05T13:52:28.260Z,2.83
2022-10-05T13:55:41.678Z,2.70
2022-10-05T13:58:35.748Z,2.80
2022-10-05T14:01:09.045Z,3.17
2022-10-05T14:03:37.987Z,3.00
2022-10-05T14:06:30.549Z,2.95
2022-10-05T14:09:00.600Z,3.10
2022-10-05T14:11:32.882Z,2.50
2022-10-05T14:14:26.703Z,3.30
2022-10-05T14:16:56.842Z,3.10
2022-10-05T14:19:23.904Z,2.80
2022-10-05T14:22:12.828Z,3.10
2022-10-05T14:25:02.925Z,2.83
2022-10-05T14:27:34.084Z,3.00
2022-10-05T14:30:06.827Z,3.42
2022-10-05T14:32:48.970Z,2.80
2022-10-05T14:35:20.835Z,2.42
2022-10-05T14:38:00.448Z,2.90
2022-10-05T14:40:34.623Z,2.88
2022-10-05T14:43:16.958Z,2.70
2022-10-05T14:46:16.612Z,2.60
2022-10-05T14:48:46.162Z,2.88
2022-10-05T14:51:31.987Z,2.47
2022-10-05T14:54:01.512Z,2.67
2022-10-05T14:56:40.585Z,2.80
2022-10-05T14:59:15.177Z,2.60
2022-10-05T15:01:55.064Z,2.45
2022-10-05T15:04:32.221Z,2.50
2022-10-05T15:07:18.018Z,2.60
2022-10-05T15:10:03.655Z,2.97
2022-10-05T15:12:40.130Z,3.33
2022-10-05T15:15:25.748Z,3.10
2022-10-05T15:18:05.140Z,3.17
2022-10-05T15:20:53.817Z,2.80
2022-10-05T15:23:34.106Z,3.10
2022-10-05T15:26:26.487Z,3.60
2022-10-05T15:29:19.323Z,3.92
2022-10-05T15:32:03.416Z,3.40
2022-10-05T15:34:58.620Z,3.63
2022-10-05T15:37:42.164Z,4.20
2022-10-05T15:40:37.899Z,3.45
2022-10-05T15:43:13.810Z,4.13
2022-10-05T15:45:53.701Z,3.95
2022-10-05T15:49:00.826Z,4.88
2022-10-05T15:51:50.236Z,3.60
2022-10-05T15:54:42.042Z,4.10
2022-10-05T15:57:36.948Z,3.97
2022-10-05T16:00:12.345Z,3.97
2022-10-05T16:03:12.937Z,4.43
2022-10-05T16:06:12.594Z,4.10
2022-10-05T16:08:50.882Z,4.57
2022-10-05T16:11:34.229Z,4.53
2022-10-05T16:14:10.989Z,3.80
2022-10-05T16:16:44.346Z,3.92
2022-10-05T16:19:20.303Z,3.75
2022-10-05T16:22:06.773Z,4.32
2022-10-05T16:24:58.594Z,4.45
2022-10-05T16:27:36.991Z,4.00
2022-10-05T16:30:10.144Z,4.43
2022-10-05T16:32:52.991Z,4.35
2022-10-05T16:35:46.664Z,4.93
2022-10-05T16:38:47.637Z,4.40
2022-10-05T16:41:36.385Z,5.07
2022-10-05T16:44:22.195Z,4.60
2022-10-05T16:46:58.465Z,5.30
2022-10-05T16:49:43.352Z,5.00
2022-10-05T16:52:19.567Z,4.97
2022-10-05T16:54:52.903Z,5.43
2022-10-05T16:57:29.906Z,5.80
2022-10-05T17:00:18.414Z,5.60
2022-10-05T17:03:08.496Z,5.63
2022-10-05T17:06:04.077Z,6.20
2022-10-05T17:08:39.880Z,6.78
2022-10-05T17:11:37.546Z,6.45
2022-10-05T17:14:15.299Z,7.60
2022-10-05T17:17:15.979Z,7.65
2022-10-05T17:20:08.727Z,6.72
2022-10-05T17:22:47.998Z,7.95
2022-10-05T17:25:33.773Z,7.03
2022-10-05T17:28:19.096Z,8.68
2022-10-05T17:30:54.200Z,8.02
2022-10-05T17:33:29.174Z,7.97
2022-10-05T17:36:04.874Z,9.07
2022-10-05T17:38:33.450Z,9.80
2022-10-05T17:41:00.519Z,8.18
2022-10-05T17:43:29.117Z,8.40
2022-10-05T17:46:00.857Z,8.77
2022-10-05T17:48:43.220Z,9.10
2022-10-05T17:51:48.399Z,8.40
2022-10-05T17:55:20.282Z,8.45
2022-10-05T17:57:47.430Z,8.45
2022-10-05T18:00:34.196Z,8.02
2022-10-05T18:03:21.163Z,7.78
2022-10-05T18:06:26.224Z,7.93
2022-10-05T18:09:20.891Z,9.57
2022-10-05T18:12:08.611Z,7.60
2022-10-05T18:15:08.001Z,8.13
2022-10-05T18:17:55.007Z,7.57
2022-10-05T18:20:26.786Z,6.70
2022-10-05T18:23:04.069Z,7.97
2022-10-05T18:25:44.569Z,6.80
2022-10-05T18:28:35.853Z,7.50
2022-10-05T18:31:05.905Z,6.75
2022-10-05T18:33:57.173Z,7.30
2022-10-05T18:36:45.802Z,6.90
2022-10-05T18:39:31.431Z,7.20
2022-10-05T18:42:27.982Z,6.28
2022-10-05T18:45:01.255Z,5.70
2022-10-05T18:48:04.816Z,5.63
2022-10-05T18:51:03.543Z,6.05
2022-10-05T18:53:42.992Z,5.38
2022-10-05T18:56:25.128Z,6.65
2022-10-05T18:58:56.739Z,5.35
2022-10-05T19:01:45.949Z,6.05
2022-10-05T19:04:58.342Z,6.20
2022-10-05T19:07:38.549Z,5.75
2022-10-05T19:10:05.780Z,5.88
2022-10-05T19:12:59.239Z,4.97
2022-10-05T19:15:29.397Z,5.35
2022-10-05T19:18:18.681Z,5.40
2022-10-05T19:21:21.869Z,4.25
2022-10-05T19:24:26.897Z,4.65
2022-10-05T19:27:17.019Z,4.63
2022-10-05T19:30:03.730Z,4.82
2022-10-05T19:32:59.888Z,4.90
2022-10-05T19:35:38.935Z,4.45
2022-10-05T19:38:20.515Z,4.68
2022-10-05T19:44:01.583Z,4.75
2022-10-05T19:46:53.391Z,4.85
2022-10-05T19:49:54.519Z,4.45
2022-10-05T19:52:45.222Z,4.55
2022-10-05T19:55:25.315Z,3.97
2022-10-05T19:58:01.407Z,4.60
2022-10-05T20:00:34.121Z,4.90
2022-10-05T20:03:16.073Z,4.47
2022-10-05T20:05:43.570Z,4.78
2022-10-05T20:08:19.001Z,3.90
2022-10-05T20:11:06.360Z,3.47
2022-10-05T20:13:35.325Z,3.65
2022-10-05T20:16:38.294Z,3.75
2022-10-05T20:19:48.317Z,4.60
2022-10-05T20:22:33.332Z,4.45
2022-10-05T20:25:06.724Z,4.15
2022-10-05T20:27:43.020Z,3.33
2022-10-05T20:30:16.261Z,3.38
2022-10-05T20:32:48.356Z,3.83
2022-10-05T20:35:16.685Z,3.92
2022-10-05T20:37:43.787Z,3.88
2022-10-05T20:40:11.740Z,4.07
2022-10-05T20:42:38.851Z,4.82
2022-10-05T20:45:06.633Z,4.07
2022-10-05T20:47:33.934Z,5.40
2022-10-05T20:50:05.115Z,4.70
2022-10-05T20:52:32.396Z,4.70
2022-10-05T20:54:59.445Z,5.50
2022-10-05T20:57:27.009Z,4.57
2022-10-05T20:59:54.181Z,4.60
2022-10-05T21:02:21.307Z,5.60
2022-10-05T21:04:48.830Z,4.30
2022-10-05T21:07:17.932Z,4.35
2022-10-05T21:09:46.866Z,5.25
2022-10-05T21:12:16.422Z,5.10
2022-10-05T21:14:43.643Z,4.57
2022-10-05T21:17:12.221Z,5.35
2022-10-05T21:19:40.537Z,4.93
2022-10-05T21:22:09.791Z,5.22
2022-10-05T21:24:41.090Z,5.47
2022-10-05T21:27:08.739Z,4.38
2022-10-05T21:29:37.259Z,5.75
2022-10-05T21:32:08.745Z,4.97
2022-10-05T21:37:02.933Z,5.75
2022-10-05T21:39:29.977Z,5.10
2022-10-05T21:41:57.009Z,4.93
2022-10-05T21:44:24.038Z,5.72
2022-10-05T21:46:51.496Z,4.75
2022-10-05T21:49:19.888Z,6.15
2022-10-05T21:51:48.005Z,5.40
2022-10-05T21:54:19.036Z,5.82
2022-10-05T21:56:50.330Z,5.68
2022-10-05T21:59:20.968Z,5.15
2022-10-05T22:01:48.148Z,5.63
2022-10-05T22:04:15.274Z,4.70
2022-10-05T22:06:42.742Z,4.80
2022-10-05T22:09:10.092Z,5.47
2022-10-05T22:11:37.173Z,5.72
2022-10-05T22:14:04.525Z,4.80
2022-10-05T22:16:36.822Z,5.18
2022-10-05T22:19:12.850Z,5.30
2022-10-05T22:21:41.986Z,5.50
2022-10-05T22:24:11.812Z,4.53
2022-10-05T22:26:40.543Z,5.05
2022-10-05T22:29:07.804Z,4.47
2022-10-05T22:31:35.163Z,3.90
2022-10-05T22:34:02.511Z,4.45
2022-10-05T22:36:29.620Z,4.43
2022-10-05T22:38:56.671Z,4.70
2022-10-05T22:41:23.895Z,4.60
2022-10-05T22:43:52.025Z,4.35
2022-10-05T22:46:20.058Z,4.50
2022-10-05T22:48:47.395Z,3.70
2022-10-05T22:51:14.440Z,4.47
2022-10-05T22:53:41.499Z,3.70
2022-10-05T22:56:13.786Z,3.90
2022-10-05T22:58:42.400Z,3.72
2022-10-05T23:01:13.712Z,3.25
2022-10-05T23:03:41.048Z,3.88
2022-10-05T23:06:13.685Z,4.05
2022-10-05T23:08:41.947Z,3.80
2022-10-05T23:11:15.329Z,2.63
2022-10-05T23:13:42.737Z,2.05
2022-10-05T23:16:15.977Z,1.73
2022-10-05T23:18:44.091Z,1.48
2022-10-05T23:21:11.766Z,1.52
2022-10-05T23:23:47.596Z,1.30
2022-10-05T23:26:15.795Z,1.13
2022-10-05T23:28:47.238Z,1.00
2022-10-05T23:31:17.706Z,0.90
2022-10-05T23:33:45.231Z,0.70
2022-10-05T23:36:22.479Z,0.88
2022-10-05T23:38:49.685Z,0.60
2022-10-05T23:41:17.960Z,0.50
2022-10-05T23:43:45.122Z,0.50
2022-10-05T23:46:13.611Z,0.73
2022-10-05T23:48:40.742Z,0.40
2022-10-05T23:51:10.198Z,0.40
2022-10-05T23:53:37.354Z,0.40
2022-10-05T23:56:04.859Z,0.28
2022-10-05T23:58:32.199Z,0.52
